createdAt,value
2017-08-09T00:00:24.300Z,21.1
2017-08-09T00:01:32.399Z,21.1
2017-08-09T00:02:40.480Z,21.1
2017-08-09T00:03:48.563Z,21.0
2017-08-09T00:04:56.648Z,21.1
2017-08-09T00:06:04.734Z,21.1
2017-08-09T00:07:12.822Z,21.1
2017-08-09T00:08:20.914Z,21.1
2017-08-09T00:09:29.000Z,21.1
2017-08-09T00:10:37.086Z,21.1
2017-08-09T00:11:45.174Z,21.1
2017-08-09T00:12:53.257Z,21.0
2017-08-09T00:14:01.346Z,21.1
2017-08-09T00:15:09.429Z,21.1
2017-08-09T00:16:17.517Z,21.0
2017-08-09T00:17:25.607Z,21.1
2017-08-09T00:18:33.696Z,21.1
2017-08-09T00:19:41.791Z,21.1
2017-08-09T00:20:49.871Z,21.1
2017-08-09T00:21:57.956Z,21.0
2017-08-09T00:23:06.050Z,21.0
2017-08-09T00:24:14.154Z,21.1
2017-08-09T00:25:22.216Z,21.0
2017-08-09T00:26:30.305Z,21.0
2017-08-09T00:27:38.390Z,21.1
2017-08-09T00:28:46.479Z,21.0
2017-08-09T00:29:54.565Z,21.0
2017-08-09T00:31:02.651Z,21.0
2017-08-09T00:32:10.741Z,21.0
2017-08-09T00:33:18.825Z,21.0
2017-08-09T00:34:26.929Z,21.0
2017-08-09T00:35:35.017Z,21.0
2017-08-09T00:36:43.102Z,21.0
2017-08-09T00:37:51.187Z,21.0
2017-08-09T00:38:59.272Z,21.1
2017-08-09T00:40:07.360Z,21.0
2017-08-09T00:41:15.448Z,21.0
2017-08-09T00:42:23.538Z,21.0
2017-08-09T00:43:31.620Z,21.0
2017-08-09T00:44:39.707Z,21.0
2017-08-09T00:45:47.803Z,21.1
2017-08-09T00:46:55.905Z,21.0
2017-08-09T00:48:03.969Z,21.0
2017-08-09T00:49:12.053Z,21.1
2017-08-09T00:50:20.138Z,21.1
2017-08-09T00:51:28.228Z,21.0
2017-08-09T00:52:36.317Z,21.1
2017-08-09T00:53:44.399Z,21.1
2017-08-09T00:54:52.490Z,21.0
2017-08-09T00:56:00.576Z,21.0
2017-08-09T00:57:08.664Z,21.0
2017-08-09T00:58:16.747Z,21.0
2017-08-09T00:59:24.833Z,21.1
2017-08-09T01:00:32.919Z,21.1
2017-08-09T01:01:41.003Z,21.1
2017-08-09T01:02:49.091Z,21.1
2017-08-09T01:03:57.178Z,21.0
2017-08-09T01:05:05.269Z,21.1
2017-08-09T01:06:13.354Z,21.0
2017-08-09T01:07:21.440Z,20.9
2017-08-09T01:08:29.525Z,20.9
2017-08-09T01:09:37.609Z,21.0
2017-08-09T01:10:45.698Z,21.0
2017-08-09T01:11:53.786Z,21.0
2017-08-09T01:13:01.874Z,21.0
2017-08-09T01:14:09.971Z,20.9
2017-08-09T01:15:18.057Z,21.0
2017-08-09T01:16:26.238Z,21.1
2017-08-09T01:17:34.230Z,20.9
2017-08-09T01:18:42.318Z,21.0
2017-08-09T01:19:50.403Z,21.0
2017-08-09T01:20:58.491Z,20.9
2017-08-09T01:22:06.579Z,20.9
2017-08-09T01:23:14.666Z,21.0
2017-08-09T01:24:22.750Z,20.9
2017-08-09T01:25:30.840Z,20.9
2017-08-09T01:26:38.934Z,20.9
2017-08-09T01:27:47.056Z,20.9
2017-08-09T01:28:55.108Z,21.0
2017-08-09T01:30:03.186Z,20.9
2017-08-09T01:31:11.272Z,21.0
2017-08-09T01:32:19.362Z,20.9
2017-08-09T01:33:27.446Z,20.9
2017-08-09T01:34:35.534Z,20.9
2017-08-09T01:35:43.618Z,20.9
2017-08-09T01:36:51.707Z,20.9
2017-08-09T01:37:59.790Z,20.9
2017-08-09T01:39:07.878Z,20.9
2017-08-09T01:40:15.966Z,21.0
2017-08-09T01:41:24.054Z,21.0
2017-08-09T01:42:32.142Z,20.9
2017-08-09T01:43:40.235Z,20.9
2017-08-09T01:44:48.324Z,20.9
2017-08-09T01:45:56.401Z,20.9
2017-08-09T01:47:04.487Z,20.9
2017-08-09T01:48:12.574Z,20.9
2017-08-09T01:49:20.661Z,20.9
2017-08-09T01:50:28.749Z,20.9
2017-08-09T01:51:36.837Z,20.9
2017-08-09T01:52:44.922Z,20.9
2017-08-09T01:53:53.010Z,20.9
2017-08-09T01:55:01.384Z,20.9
2017-08-09T01:56:09.193Z,20.9
2017-08-09T01:57:17.278Z,20.9
2017-08-09T01:58:25.367Z,20.9
2017-08-09T01:59:33.454Z,20.9
2017-08-09T02:00:41.539Z,20.9
2017-08-09T02:01:49.627Z,20.9
2017-08-09T02:02:57.713Z,20.9
2017-08-09T02:04:05.807Z,20.9
2017-08-09T02:05:13.884Z,20.9
2017-08-09T02:06:21.974Z,20.9
2017-08-09T02:07:30.060Z,20.9
2017-08-09T02:08:38.148Z,20.9
2017-08-09T02:09:46.235Z,20.9
2017-08-09T02:10:54.323Z,20.9
2017-08-09T02:12:02.407Z,20.9
2017-08-09T02:13:10.493Z,20.9
2017-08-09T02:14:18.582Z,20.9
2017-08-09T02:15:26.672Z,20.9
2017-08-09T02:16:34.754Z,20.9
2017-08-09T02:17:42.841Z,20.9
2017-08-09T02:18:50.929Z,20.8
2017-08-09T02:19:59.016Z,20.9
2017-08-09T02:21:07.102Z,20.9
2017-08-09T02:22:15.197Z,20.8
2017-08-09T02:23:23.283Z,20.9
2017-08-09T02:24:31.370Z,20.9
2017-08-09T02:25:39.457Z,20.9
2017-08-09T02:26:47.542Z,20.9
2017-08-09T02:27:55.631Z,20.9
2017-08-09T02:29:03.716Z,20.9
2017-08-09T02:30:11.804Z,20.8
2017-08-09T02:31:19.889Z,20.8
2017-08-09T02:32:28.009Z,20.9
2017-08-09T02:33:36.060Z,20.8
2017-08-09T02:34:44.148Z,20.9
2017-08-09T02:35:52.235Z,20.8
2017-08-09T02:37:00.324Z,20.9
2017-08-09T02:38:08.410Z,20.9
2017-08-09T02:39:16.497Z,20.9
2017-08-09T02:40:24.589Z,20.8
2017-08-09T02:41:32.668Z,20.8
2017-08-09T02:42:40.754Z,20.8
2017-08-09T02:43:48.842Z,20.8
2017-08-09T02:44:56.953Z,20.8
2017-08-09T02:46:05.016Z,20.8
2017-08-09T02:47:13.102Z,20.8
2017-08-09T02:48:21.188Z,20.9
2017-08-09T02:49:29.277Z,20.8
2017-08-09T02:50:37.365Z,20.8
2017-08-09T02:51:45.449Z,20.9
2017-08-09T02:52:53.544Z,20.8
2017-08-09T02:54:01.632Z,20.9
2017-08-09T02:55:09.716Z,20.8
2017-08-09T02:56:17.807Z,20.9
2017-08-09T02:57:25.892Z,20.8
2017-08-09T02:58:33.990Z,20.9
2017-08-09T02:59:42.065Z,20.8
2017-08-09T03:00:50.150Z,20.9
2017-08-09T03:01:58.236Z,20.9
2017-08-09T03:03:06.324Z,20.8
2017-08-09T03:04:14.411Z,20.9
2017-08-09T03:05:22.501Z,20.8
2017-08-09T03:06:30.584Z,20.8
2017-08-09T03:07:38.670Z,20.8
2017-08-09T03:08:46.757Z,20.8
2017-08-09T03:09:54.851Z,20.8
2017-08-09T03:11:02.926Z,20.9
2017-08-09T03:12:11.016Z,20.8
2017-08-09T03:13:19.103Z,20.8
2017-08-09T03:14:27.187Z,20.8
2017-08-09T03:15:35.291Z,20.8
2017-08-09T03:16:43.368Z,20.7
2017-08-09T03:17:51.451Z,20.8
2017-08-09T03:18:59.575Z,20.8
2017-08-09T03:20:07.624Z,20.8
2017-08-09T03:21:15.727Z,20.8
2017-08-09T03:22:23.797Z,20.8
2017-08-09T03:23:31.887Z,20.8
2017-08-09T03:24:39.973Z,20.7
2017-08-09T03:25:48.061Z,20.8
2017-08-09T03:26:56.146Z,20.8
2017-08-09T03:28:04.244Z,20.8
2017-08-09T03:29:12.332Z,20.8
2017-08-09T03:30:20.434Z,20.8
2017-08-09T03:31:28.521Z,20.7
2017-08-09T03:32:36.606Z,20.9
2017-08-09T03:33:44.691Z,20.8
2017-08-09T03:34:52.785Z,20.8
2017-08-09T03:36:00.867Z,20.7
2017-08-09T03:37:08.953Z,20.9
2017-08-09T03:38:17.042Z,20.8
2017-08-09T03:39:25.126Z,20.8
2017-08-09T03:40:33.214Z,20.8
2017-08-09T03:41:41.300Z,20.7
2017-08-09T03:42:49.410Z,20.7
2017-08-09T03:43:57.594Z,20.7
2017-08-09T03:45:05.563Z,20.8
2017-08-09T03:46:13.658Z,20.8
2017-08-09T03:47:21.734Z,20.7
2017-08-09T03:48:29.822Z,20.7
2017-08-09T03:49:37.912Z,20.7
2017-08-09T03:50:45.998Z,20.7
2017-08-09T03:51:54.089Z,20.8
2017-08-09T03:53:02.174Z,20.8
2017-08-09T03:54:10.256Z,20.8
2017-08-09T03:55:18.486Z,20.7
2017-08-09T03:56:26.429Z,20.8
2017-08-09T03:57:34.518Z,20.8
2017-08-09T03:58:42.604Z,20.7
2017-08-09T03:59:50.690Z,20.7
2017-08-09T04:00:58.776Z,20.7
2017-08-09T04:02:06.863Z,20.8
2017-08-09T04:03:14.962Z,20.8
2017-08-09T04:04:23.051Z,20.8
2017-08-09T04:05:31.123Z,20.9
2017-08-09T04:06:39.214Z,20.8
2017-08-09T04:07:47.306Z,20.7
2017-08-09T04:08:55.738Z,20.8
2017-08-09T04:10:03.482Z,20.7
2017-08-09T04:11:11.581Z,20.8
2017-08-09T04:12:19.655Z,20.7
2017-08-09T04:13:27.744Z,20.8
2017-08-09T04:14:35.830Z,20.8
2017-08-09T04:15:43.927Z,20.8
2017-08-09T04:16:52.012Z,20.7
2017-08-09T04:18:00.097Z,20.7
2017-08-09T04:19:08.184Z,20.8
2017-08-09T04:20:16.273Z,20.7
2017-08-09T04:21:24.364Z,20.7
2017-08-09T04:22:32.444Z,20.7
2017-08-09T04:23:40.533Z,20.7
2017-08-09T04:24:48.795Z,20.7
2017-08-09T04:25:56.706Z,20.7
2017-08-09T04:27:04.792Z,20.7
2017-08-09T04:28:12.880Z,20.8
2017-08-09T04:29:20.967Z,20.8
2017-08-09T04:30:29.053Z,20.7
2017-08-09T04:31:37.165Z,20.7
2017-08-09T04:32:45.226Z,20.8
2017-08-09T04:33:53.404Z,20.8
2017-08-09T04:35:01.400Z,20.7
2017-08-09T04:36:09.494Z,20.8
2017-08-09T04:37:17.580Z,20.7
2017-08-09T04:38:25.697Z,20.7
2017-08-09T04:39:33.753Z,20.7
2017-08-09T04:40:41.838Z,20.7
2017-08-09T04:41:49.941Z,20.7
2017-08-09T04:42:58.052Z,20.7
2017-08-09T04:44:06.150Z,20.7
2017-08-09T04:45:14.217Z,20.8
2017-08-09T04:46:22.303Z,20.7
2017-08-09T04:47:30.391Z,20.7
2017-08-09T04:48:38.474Z,20.7
2017-08-09T04:49:46.561Z,20.8
2017-08-09T04:50:54.647Z,20.8
2017-08-09T04:52:02.863Z,20.7
2017-08-09T04:53:10.821Z,20.8
2017-08-09T04:54:18.911Z,20.7
2017-08-09T04:55:26.993Z,20.8
2017-08-09T04:56:35.090Z,20.7
2017-08-09T04:57:43.171Z,20.7
2017-08-09T04:58:51.253Z,20.7
2017-08-09T04:59:59.351Z,20.8
2017-08-09T05:01:07.439Z,20.7
2017-08-09T05:02:16.755Z,20.7
2017-08-09T05:03:23.613Z,20.7
2017-08-09T05:04:31.699Z,20.8
2017-08-09T05:05:39.789Z,20.7
2017-08-09T05:06:47.873Z,20.8
2017-08-09T05:07:55.976Z,20.8
2017-08-09T05:09:04.045Z,20.8
2017-08-09T05:10:12.132Z,20.8
2017-08-09T05:11:20.222Z,20.9
2017-08-09T05:12:28.305Z,20.8
2017-08-09T05:13:36.395Z,20.9
2017-08-09T05:14:44.494Z,20.8
2017-08-09T05:15:52.569Z,20.8
2017-08-09T05:17:00.652Z,20.8
2017-08-09T05:18:08.739Z,20.7
2017-08-09T05:19:16.837Z,20.8
2017-08-09T05:20:24.938Z,20.8
2017-08-09T05:21:33.002Z,20.8
2017-08-09T05:22:41.088Z,20.8
2017-08-09T05:23:49.177Z,20.8
2017-08-09T05:24:57.266Z,20.9
2017-08-09T05:26:05.363Z,20.8
2017-08-09T05:27:13.443Z,20.8
2017-08-09T05:28:21.530Z,20.7
2017-08-09T05:29:29.616Z,20.8
2017-08-09T05:30:37.706Z,20.8
2017-08-09T05:31:45.792Z,20.7
2017-08-09T05:32:53.878Z,20.8
2017-08-09T05:34:01.964Z,20.8
2017-08-09T05:35:10.051Z,20.8
2017-08-09T05:36:18.142Z,20.8
2017-08-09T05:37:26.225Z,20.8
2017-08-09T05:38:34.312Z,20.8
2017-08-09T05:39:42.402Z,20.8
2017-08-09T05:40:50.486Z,20.8
2017-08-09T05:41:58.573Z,20.9
2017-08-09T05:43:06.659Z,20.8
2017-08-09T05:44:14.745Z,20.8
2017-08-09T05:45:22.831Z,20.8
2017-08-09T05:46:30.918Z,20.7
2017-08-09T05:47:39.010Z,20.8
2017-08-09T05:48:47.101Z,20.7
2017-08-09T05:49:55.178Z,20.7
2017-08-09T05:51:03.266Z,20.7
2017-08-09T05:52:11.355Z,20.7
2017-08-09T05:53:19.440Z,20.8
2017-08-09T05:54:27.530Z,20.8
2017-08-09T05:55:35.614Z,20.7
2017-08-09T05:56:43.701Z,20.7
2017-08-09T05:57:51.789Z,20.8
2017-08-09T05:58:59.876Z,20.8
2017-08-09T06:00:07.962Z,20.8
2017-08-09T06:01:16.050Z,20.9
2017-08-09T06:02:24.134Z,20.7
2017-08-09T06:03:32.221Z,20.9
2017-08-09T06:04:40.306Z,20.7
2017-08-09T06:05:48.395Z,20.8
2017-08-09T06:06:56.483Z,20.9
2017-08-09T06:08:04.570Z,20.7
2017-08-09T06:09:12.654Z,20.8
2017-08-09T06:10:20.743Z,20.7
2017-08-09T06:11:28.830Z,20.8
2017-08-09T06:12:36.921Z,20.7
2017-08-09T06:13:45.007Z,20.8
2017-08-09T06:14:53.095Z,20.8
2017-08-09T06:16:01.186Z,20.7
2017-08-09T06:17:09.269Z,20.8
2017-08-09T06:18:17.358Z,20.8
2017-08-09T06:19:25.451Z,20.9
2017-08-09T06:20:33.532Z,20.8
2017-08-09T06:21:41.617Z,20.7
2017-08-09T06:22:49.703Z,20.7
2017-08-09T06:23:57.788Z,20.7
2017-08-09T06:25:05.878Z,20.8
2017-08-09T06:26:13.965Z,20.8
2017-08-09T06:27:22.050Z,20.7
2017-08-09T06:28:30.147Z,20.7
2017-08-09T06:29:38.225Z,20.7
2017-08-09T06:30:46.310Z,20.7
2017-08-09T06:31:54.397Z,20.8
2017-08-09T06:33:02.483Z,20.7
2017-08-09T06:34:10.571Z,20.8
2017-08-09T06:35:18.658Z,20.8
2017-08-09T06:36:26.768Z,20.7
2017-08-09T06:37:34.836Z,20.7
2017-08-09T06:38:42.920Z,20.7
2017-08-09T06:39:51.007Z,20.7
2017-08-09T06:40:59.092Z,20.8
2017-08-09T06:42:07.180Z,20.7
2017-08-09T06:43:15.264Z,20.7
2017-08-09T06:44:23.351Z,20.7
2017-08-09T06:45:31.442Z,20.7
2017-08-09T06:46:39.526Z,20.8
2017-08-09T06:47:47.636Z,20.8
2017-08-09T06:48:55.701Z,20.7
2017-08-09T06:50:03.790Z,20.7
2017-08-09T06:51:11.875Z,20.7
2017-08-09T06:52:19.961Z,20.8
2017-08-09T06:53:28.049Z,20.8
2017-08-09T06:54:36.136Z,20.7
2017-08-09T06:55:44.224Z,20.7
2017-08-09T06:56:52.312Z,20.8
2017-08-09T06:58:00.402Z,20.8
2017-08-09T06:59:08.484Z,20.7
2017-08-09T07:00:16.570Z,20.7
2017-08-09T07:01:24.685Z,20.7
2017-08-09T07:02:32.743Z,20.7
2017-08-09T07:03:40.830Z,20.7
2017-08-09T07:04:48.914Z,20.7
2017-08-09T07:05:57.005Z,20.8
2017-08-09T07:07:05.090Z,20.7
2017-08-09T07:08:13.177Z,20.8
2017-08-09T07:09:21.264Z,20.8
2017-08-09T07:10:29.351Z,20.7
2017-08-09T07:11:37.438Z,20.8
2017-08-09T07:12:45.526Z,20.7
2017-08-09T07:13:53.732Z,20.8
2017-08-09T07:15:01.699Z,20.8
2017-08-09T07:16:09.785Z,20.7
2017-08-09T07:17:17.877Z,20.7
2017-08-09T07:18:25.964Z,20.8
2017-08-09T07:19:34.058Z,20.7
2017-08-09T07:20:42.143Z,20.8
2017-08-09T07:21:50.224Z,20.8
2017-08-09T07:22:58.311Z,20.8
2017-08-09T07:24:06.398Z,20.7
2017-08-09T07:25:14.485Z,20.8
2017-08-09T07:26:22.571Z,20.7
2017-08-09T07:27:30.658Z,20.8
2017-08-09T07:28:38.794Z,20.7
2017-08-09T07:29:46.827Z,20.7
2017-08-09T07:30:54.916Z,20.8
2017-08-09T07:32:03.001Z,20.9
2017-08-09T07:33:11.090Z,20.8
2017-08-09T07:34:19.177Z,20.8
2017-08-09T07:35:27.265Z,20.8
2017-08-09T07:36:35.350Z,20.8
2017-08-09T07:37:43.438Z,20.7
2017-08-09T07:38:51.533Z,20.8
2017-08-09T07:39:59.621Z,20.8
2017-08-09T07:41:07.708Z,20.7
2017-08-09T07:42:15.795Z,20.8
2017-08-09T07:43:23.882Z,20.8
2017-08-09T07:44:31.966Z,20.7
2017-08-09T07:45:40.056Z,20.7
2017-08-09T07:46:48.141Z,20.9
2017-08-09T07:47:56.228Z,20.8
2017-08-09T07:49:04.316Z,20.8
2017-08-09T07:50:12.405Z,20.8
2017-08-09T07:51:20.486Z,20.8
2017-08-09T07:52:28.584Z,20.8
2017-08-09T07:53:36.669Z,20.8
2017-08-09T07:54:44.757Z,20.8
2017-08-09T07:55:52.849Z,20.9
2017-08-09T07:57:00.977Z,20.8
2017-08-09T07:58:09.018Z,20.8
2017-08-09T07:59:17.112Z,20.8
2017-08-09T08:00:25.192Z,20.8
2017-08-09T08:01:33.280Z,20.9
2017-08-09T08:02:41.365Z,20.8
2017-08-09T08:03:49.450Z,20.8
2017-08-09T08:04:57.538Z,20.8
2017-08-09T08:06:05.632Z,20.9
2017-08-09T08:07:13.711Z,20.8
2017-08-09T08:08:21.797Z,20.8
2017-08-09T08:09:29.885Z,20.8
2017-08-09T08:10:37.973Z,20.8
2017-08-09T08:11:46.185Z,20.8
2017-08-09T08:12:54.146Z,20.9
2017-08-09T08:14:02.232Z,20.9
2017-08-09T08:15:10.319Z,20.8
2017-08-09T08:16:18.405Z,20.8
2017-08-09T08:17:26.499Z,20.8
2017-08-09T08:18:34.580Z,20.8
2017-08-09T08:19:42.667Z,20.9
2017-08-09T08:20:50.760Z,20.8
2017-08-09T08:21:58.841Z,20.9
2017-08-09T08:23:06.926Z,20.8
2017-08-09T08:24:15.018Z,20.9
2017-08-09T08:25:23.098Z,20.8
2017-08-09T08:26:31.186Z,20.9
2017-08-09T08:27:39.274Z,20.8
2017-08-09T08:28:47.369Z,20.8
2017-08-09T08:29:55.447Z,20.8
2017-08-09T08:31:03.536Z,20.9
2017-08-09T08:32:11.623Z,20.9
2017-08-09T08:33:19.710Z,20.9
2017-08-09T08:34:27.795Z,20.9
2017-08-09T08:35:35.882Z,20.9
2017-08-09T08:36:43.970Z,20.9
2017-08-09T08:37:52.057Z,20.9
2017-08-09T08:39:00.146Z,20.9
2017-08-09T08:40:08.241Z,20.9
2017-08-09T08:41:16.328Z,20.9
2017-08-09T08:42:24.415Z,20.9
2017-08-09T08:43:32.500Z,20.9
2017-08-09T08:44:40.588Z,20.9
2017-08-09T08:45:48.674Z,20.9
2017-08-09T08:46:56.763Z,20.9
2017-08-09T08:48:04.849Z,20.9
2017-08-09T08:49:12.938Z,20.9
2017-08-09T08:50:21.026Z,20.9
2017-08-09T08:51:29.112Z,20.9
2017-08-09T08:52:37.202Z,21.0
2017-08-09T08:53:45.286Z,20.9
2017-08-09T08:54:53.370Z,20.9
2017-08-09T08:56:01.459Z,20.9
2017-08-09T08:57:09.554Z,21.0
2017-08-09T08:58:17.636Z,20.9
2017-08-09T08:59:25.723Z,21.1
2017-08-09T09:00:33.812Z,21.0
2017-08-09T09:01:41.896Z,21.0
2017-08-09T09:02:49.983Z,21.0
2017-08-09T09:03:58.070Z,21.1
2017-08-09T09:05:06.188Z,21.0
2017-08-09T09:06:14.258Z,21.0
2017-08-09T09:07:22.430Z,21.0
2017-08-09T09:08:30.423Z,21.0
2017-08-09T09:09:38.509Z,21.0
2017-08-09T09:10:46.596Z,21.1
2017-08-09T09:11:54.683Z,21.0
2017-08-09T09:13:02.770Z,21.1
2017-08-09T09:14:10.858Z,21.1
2017-08-09T09:15:18.946Z,21.1
2017-08-09T09:16:27.034Z,21.1
2017-08-09T09:17:35.123Z,21.1
2017-08-09T09:18:43.208Z,21.0
2017-08-09T09:19:51.296Z,21.1
2017-08-09T09:20:59.387Z,21.0
2017-08-09T09:22:07.471Z,21.1
2017-08-09T09:23:15.557Z,21.0
2017-08-09T09:24:23.644Z,21.0
2017-08-09T09:25:31.737Z,21.1
2017-08-09T09:26:39.820Z,21.2
2017-08-09T09:27:47.906Z,21.2
2017-08-09T09:28:55.997Z,21.2
2017-08-09T09:30:04.082Z,21.1
2017-08-09T09:31:12.175Z,21.2
2017-08-09T09:32:20.255Z,21.2
2017-08-09T09:33:28.343Z,21.2
2017-08-09T09:34:36.435Z,21.1
2017-08-09T09:35:44.572Z,21.2
2017-08-09T09:36:52.607Z,21.2
2017-08-09T09:38:00.695Z,21.2
2017-08-09T09:39:08.780Z,21.2
2017-08-09T09:40:16.870Z,21.2
2017-08-09T09:41:24.957Z,21.2
2017-08-09T09:42:33.048Z,21.2
2017-08-09T09:43:41.130Z,21.2
2017-08-09T09:44:49.219Z,21.1
2017-08-09T09:45:57.306Z,21.3
2017-08-09T09:47:05.449Z,21.2
2017-08-09T09:48:13.480Z,21.3
2017-08-09T09:49:21.569Z,21.3
2017-08-09T09:50:29.657Z,21.2
2017-08-09T09:51:37.743Z,21.2
2017-08-09T09:52:45.829Z,21.3
2017-08-09T09:53:53.917Z,21.3
2017-08-09T09:55:02.006Z,21.3
2017-08-09T09:56:10.093Z,21.2
2017-08-09T09:57:18.188Z,21.3
2017-08-09T09:58:26.272Z,21.3
2017-08-09T09:59:34.375Z,21.3
2017-08-09T10:00:42.444Z,21.3
2017-08-09T10:01:50.531Z,21.2
2017-08-09T10:02:58.623Z,21.2
2017-08-09T10:04:06.704Z,21.3
2017-08-09T10:05:14.793Z,21.3
2017-08-09T10:06:22.883Z,21.3
2017-08-09T10:07:30.982Z,21.3
2017-08-09T10:08:39.089Z,21.3
2017-08-09T10:09:47.170Z,21.3
2017-08-09T10:10:55.259Z,21.3
2017-08-09T10:12:03.343Z,21.3
2017-08-09T10:13:11.438Z,21.3
2017-08-09T10:14:19.520Z,21.3
2017-08-09T10:15:27.607Z,21.3
2017-08-09T10:16:35.695Z,21.3
2017-08-09T10:17:43.780Z,21.3
2017-08-09T10:18:51.869Z,21.3
2017-08-09T10:19:59.956Z,21.3
2017-08-09T10:21:08.069Z,21.3
2017-08-09T10:22:16.142Z,21.3
2017-08-09T10:23:24.220Z,21.3
2017-08-09T10:24:32.307Z,21.3
2017-08-09T10:25:40.394Z,21.3
2017-08-09T10:26:48.480Z,21.4
2017-08-09T10:27:56.568Z,21.3
2017-08-09T10:29:04.656Z,21.4
2017-08-09T10:30:12.747Z,21.4
2017-08-09T10:31:20.832Z,21.4
2017-08-09T10:32:28.921Z,21.4
2017-08-09T10:33:37.012Z,21.3
2017-08-09T10:34:45.097Z,21.4
2017-08-09T10:35:53.185Z,21.4
2017-08-09T10:37:01.270Z,21.4
2017-08-09T10:38:09.359Z,21.4
2017-08-09T10:39:17.445Z,21.4
2017-08-09T10:40:25.533Z,21.4
2017-08-09T10:41:33.623Z,21.4
2017-08-09T10:42:41.708Z,21.4
2017-08-09T10:43:49.796Z,21.4
2017-08-09T10:44:57.886Z,21.5
2017-08-09T10:46:06.046Z,21.5
2017-08-09T10:47:14.069Z,21.5
2017-08-09T10:48:22.148Z,21.4
2017-08-09T10:49:30.234Z,21.4
2017-08-09T10:50:38.323Z,21.5
2017-08-09T10:51:46.419Z,21.5
2017-08-09T10:52:54.512Z,21.5
2017-08-09T10:54:02.587Z,21.6
2017-08-09T10:55:10.676Z,21.5
2017-08-09T10:56:18.770Z,21.5
2017-08-09T10:57:26.848Z,21.5
2017-08-09T10:58:34.964Z,21.6
2017-08-09T10:59:43.024Z,21.5
2017-08-09T11:00:51.113Z,21.5
2017-08-09T11:01:59.203Z,21.5
2017-08-09T11:03:07.289Z,21.6
2017-08-09T11:04:15.378Z,21.5
2017-08-09T11:05:23.464Z,21.6
2017-08-09T11:06:31.551Z,21.4
2017-08-09T11:07:39.636Z,21.6
2017-08-09T11:08:47.726Z,21.6
2017-08-09T11:09:55.816Z,21.5
2017-08-09T11:11:03.903Z,21.5
2017-08-09T11:12:11.990Z,21.5
2017-08-09T11:13:20.080Z,21.6
2017-08-09T11:14:28.165Z,21.5
2017-08-09T11:15:36.252Z,21.6
2017-08-09T11:16:44.349Z,21.6
2017-08-09T11:17:52.426Z,21.6
2017-08-09T11:19:00.514Z,21.6
2017-08-09T11:20:08.604Z,21.6
2017-08-09T11:21:16.692Z,21.6
2017-08-09T11:22:24.778Z,21.6
2017-08-09T11:23:32.868Z,21.6
2017-08-09T11:24:40.953Z,21.6
2017-08-09T11:25:49.041Z,21.6
2017-08-09T11:26:57.128Z,21.7
2017-08-09T11:28:05.214Z,21.6
2017-08-09T11:29:13.303Z,21.6
2017-08-09T11:30:21.391Z,21.6
2017-08-09T11:31:29.480Z,21.6
2017-08-09T11:32:37.572Z,21.6
2017-08-09T11:33:45.654Z,21.6
2017-08-09T11:34:53.742Z,21.6
2017-08-09T11:36:01.830Z,21.7
2017-08-09T11:37:09.917Z,21.6
2017-08-09T11:38:18.007Z,21.6
2017-08-09T11:39:26.098Z,21.6
2017-08-09T11:40:34.191Z,21.6
2017-08-09T11:41:42.271Z,21.6
2017-08-09T11:42:50.361Z,21.6
2017-08-09T11:43:58.446Z,21.6
2017-08-09T11:45:06.548Z,21.7
2017-08-09T11:46:14.625Z,21.5
2017-08-09T11:47:22.712Z,21.6
2017-08-09T11:48:30.797Z,21.6
2017-08-09T11:49:38.884Z,21.7
2017-08-09T11:50:46.971Z,21.8
2017-08-09T11:51:55.060Z,21.5
2017-08-09T11:53:03.150Z,21.6
2017-08-09T11:54:11.238Z,21.6
2017-08-09T11:55:19.333Z,21.7
2017-08-09T11:56:27.426Z,21.7
2017-08-09T11:57:35.510Z,21.7
2017-08-09T11:58:43.597Z,21.7
2017-08-09T11:59:51.688Z,21.7
2017-08-09T12:00:59.781Z,21.6
2017-08-09T12:02:07.861Z,21.7
2017-08-09T12:03:15.950Z,21.7
2017-08-09T12:04:24.048Z,21.7
2017-08-09T12:05:32.123Z,21.6
2017-08-09T12:06:40.215Z,21.7
2017-08-09T12:07:48.300Z,21.7
2017-08-09T12:08:56.389Z,21.7
2017-08-09T12:10:04.492Z,21.6
2017-08-09T12:11:12.579Z,21.7
2017-08-09T12:12:20.671Z,21.6
2017-08-09T12:13:28.757Z,21.6
2017-08-09T12:14:36.841Z,21.7
2017-08-09T12:15:44.930Z,21.8
2017-08-09T12:16:53.024Z,21.7
2017-08-09T12:18:01.107Z,21.8
2017-08-09T12:19:09.196Z,21.8
2017-08-09T12:20:17.282Z,21.7
2017-08-09T12:21:25.384Z,21.7
2017-08-09T12:22:33.457Z,21.7
2017-08-09T12:23:41.545Z,21.7
2017-08-09T12:24:49.727Z,21.6
2017-08-09T12:25:57.722Z,21.7
2017-08-09T12:27:05.810Z,21.7
2017-08-09T12:28:13.897Z,21.8
2017-08-09T12:29:21.985Z,21.7
2017-08-09T12:30:30.071Z,21.7
2017-08-09T12:31:38.158Z,21.7
2017-08-09T12:32:46.246Z,21.8
2017-08-09T12:33:54.337Z,21.8
2017-08-09T12:35:02.423Z,21.7
2017-08-09T12:36:10.512Z,21.8
2017-08-09T12:37:18.603Z,21.8
2017-08-09T12:38:26.689Z,21.7
2017-08-09T12:39:34.780Z,21.8
2017-08-09T12:40:42.862Z,21.8
2017-08-09T12:41:50.964Z,21.8
2017-08-09T12:42:59.048Z,21.7
2017-08-09T12:44:07.142Z,21.8
2017-08-09T12:45:15.222Z,21.8
2017-08-09T12:46:23.311Z,21.8
2017-08-09T12:47:31.398Z,21.7
2017-08-09T12:48:39.487Z,21.7
2017-08-09T12:49:47.579Z,21.8
2017-08-09T12:50:55.664Z,21.8
2017-08-09T12:52:03.750Z,21.8
2017-08-09T12:53:11.835Z,21.8
2017-08-09T12:54:19.929Z,21.8
2017-08-09T12:55:28.028Z,21.8
2017-08-09T12:56:36.118Z,21.8
2017-08-09T12:57:44.205Z,21.8
2017-08-09T12:58:52.294Z,21.8
2017-08-09T13:00:00.782Z,21.8
2017-08-09T13:01:08.471Z,21.8
2017-08-09T13:02:16.557Z,21.8
2017-08-09T13:03:24.646Z,21.8
2017-08-09T13:04:32.733Z,21.8
2017-08-09T13:05:40.829Z,21.8
2017-08-09T13:06:48.920Z,21.8
2017-08-09T13:07:57.008Z,21.8
2017-08-09T13:09:05.097Z,21.8
2017-08-09T13:10:13.191Z,21.8
2017-08-09T13:11:21.270Z,21.8
2017-08-09T13:12:29.360Z,21.8
2017-08-09T13:13:37.447Z,21.8
2017-08-09T13:14:45.535Z,21.8
2017-08-09T13:15:53.621Z,21.8
2017-08-09T13:17:01.718Z,21.8
2017-08-09T13:18:09.798Z,21.8
2017-08-09T13:19:17.888Z,21.8
2017-08-09T13:20:25.975Z,21.8
2017-08-09T13:21:34.063Z,21.8
2017-08-09T13:22:42.152Z,21.8
2017-08-09T13:23:50.239Z,21.8
2017-08-09T13:24:58.325Z,21.8
2017-08-09T13:26:06.534Z,21.8
2017-08-09T13:27:14.507Z,21.8
2017-08-09T13:28:22.589Z,21.8
2017-08-09T13:29:30.678Z,21.9
2017-08-09T13:30:38.766Z,21.8
2017-08-09T13:31:46.855Z,21.8
2017-08-09T13:32:54.943Z,21.8
2017-08-09T13:34:03.030Z,21.8
2017-08-09T13:35:11.117Z,21.9
2017-08-09T13:36:19.213Z,21.8
2017-08-09T13:37:27.295Z,21.8
2017-08-09T13:38:35.382Z,21.9
2017-08-09T13:39:43.469Z,21.9
2017-08-09T13:40:51.557Z,21.8
2017-08-09T13:41:59.644Z,21.8
2017-08-09T13:43:07.733Z,21.9
2017-08-09T13:44:15.877Z,21.8
2017-08-09T13:45:23.909Z,21.9
2017-08-09T13:46:31.997Z,21.9
2017-08-09T13:47:40.082Z,21.8
2017-08-09T13:48:48.173Z,21.9
2017-08-09T13:49:56.261Z,22.0
2017-08-09T13:51:04.351Z,21.9
2017-08-09T13:52:12.440Z,21.9
2017-08-09T13:53:20.523Z,21.9
2017-08-09T13:54:28.668Z,21.9
2017-08-09T13:55:36.701Z,21.9
2017-08-09T13:56:44.789Z,21.9
2017-08-09T13:57:52.875Z,21.9
2017-08-09T13:59:00.965Z,21.9
2017-08-09T14:00:09.053Z,21.9
2017-08-09T14:01:17.141Z,21.9
2017-08-09T14:02:25.227Z,21.9
2017-08-09T14:04:41.403Z,21.9
2017-08-09T14:05:49.490Z,21.8
2017-08-09T14:06:57.580Z,21.9
2017-08-09T14:08:05.669Z,21.9
2017-08-09T14:09:13.835Z,21.9
2017-08-09T14:10:21.848Z,21.9
2017-08-09T14:11:29.928Z,21.9
2017-08-09T14:12:38.017Z,21.9
2017-08-09T14:13:46.113Z,21.9
2017-08-09T14:14:54.197Z,21.9
2017-08-09T14:16:02.283Z,21.9
2017-08-09T14:17:10.370Z,21.9
2017-08-09T14:18:18.459Z,21.9
2017-08-09T14:19:26.557Z,21.9
2017-08-09T14:20:34.653Z,21.9
2017-08-09T14:21:42.734Z,21.9
2017-08-09T14:22:50.822Z,21.8
2017-08-09T14:23:58.917Z,22.0
2017-08-09T14:25:06.998Z,21.9
2017-08-09T14:26:15.090Z,21.9
2017-08-09T14:27:23.178Z,21.9
2017-08-09T14:28:31.261Z,21.9
2017-08-09T14:29:39.348Z,21.8
2017-08-09T14:30:47.439Z,21.9
2017-08-09T14:31:55.526Z,21.9
2017-08-09T14:33:03.615Z,21.9
2017-08-09T14:34:11.701Z,21.9
2017-08-09T14:35:19.790Z,21.9
2017-08-09T14:36:27.878Z,21.9
2017-08-09T14:37:35.970Z,21.9
2017-08-09T14:38:44.053Z,22.0
2017-08-09T14:39:52.141Z,21.9
2017-08-09T14:41:00.231Z,21.9
2017-08-09T14:42:08.317Z,21.9
2017-08-09T14:43:16.408Z,21.9
2017-08-09T14:44:24.500Z,21.9
2017-08-09T14:45:32.588Z,21.9
2017-08-09T14:46:40.675Z,21.9
2017-08-09T14:47:48.763Z,21.8
2017-08-09T14:48:56.863Z,21.9
2017-08-09T14:50:04.950Z,21.9
2017-08-09T14:51:13.042Z,21.9
2017-08-09T14:52:21.127Z,21.9
2017-08-09T14:53:29.214Z,21.9
2017-08-09T14:54:37.301Z,21.9
2017-08-09T14:55:45.405Z,21.9
2017-08-09T14:56:53.497Z,21.9
2017-08-09T14:58:01.584Z,21.9
2017-08-09T14:59:09.672Z,21.9
2017-08-09T15:00:17.761Z,21.9
2017-08-09T15:01:25.856Z,21.9
2017-08-09T15:02:33.946Z,21.9
2017-08-09T15:03:42.034Z,21.8
2017-08-09T15:04:50.123Z,21.9
2017-08-09T15:05:58.212Z,21.9
2017-08-09T15:07:06.300Z,21.9